Robstown, Texas
Current Conditions -  °F | °C
As of 2:15 PM on Monday 24 Nov 2014 (Local Time) from KRBO Reporting Station
Clear Clear  
Wind Chill: 67°   Ceiling: Unl
Heat Index: 67°   Visibility: 10mi
Dew Point: 36°   Wind: 12mph
Humidity: 32%   Direction: 340°NNW
Pressure: 30.03"   Gusts: 17mph
Location:  27.79°N, 97.66°W
Report Text: KRBO 242015Z AUTO 34010G15KT 10SM CLR 20/02 A3003 RMK AO2 T01970023
Loading
Personal Weather Stations






























Interactive Weather Map New forecast layout! Learn more

10-Day Weather Forecast

Advertisements
Track Severe Weather on mobile